Flight Track Log - Related Links

Times and Time Zones

All times are in EDT time to prevent confusion due to time zone crossing. See the EGF2907 flight status page for this flight to view local times or setup timezone preferences in your user account.

Time Position Orientation Groundspeed Altitude Reporting Facility
EDT Latitude Longitude Course Direction KTS MPH feet Rate Location/Type
Mon 01:05:58 PM 40.3419 -76.9392 320° Northwest 230 265 6,700  Level New York Center
Mon 01:06:00 PM 40.2924 -77.2312 318° Northwest  Level Estimated
Mon 01:06:58 PM 40.3736 -77.0128 299° West 247 284 8,900  Level New York Center
Mon 01:07:00 PM 40.3169 -77.3486 308° West  Level Estimated
Mon 01:07:58 PM 40.4150 -77.0983 302° West 253 291 11,000  Level New York Center
Mon 01:08:00 PM 40.3413 -77.4660 279° West  Level Estimated
Mon 01:08:58 PM 40.4483 -77.1750 300° West 265 305 12,300  Level New York Center
Mon 01:09:00 PM 40.4130 -77.5433 321° Northwest  Level FlightAware Approximate
Mon 01:09:58 PM 40.4972 -77.2750 303° West 291 335 13,400  Level New York Center
Mon 01:10:58 PM 40.5400 -77.3639 302° West 311 358 14,300 923 Climbing New York Center
Mon 01:13:00 PM 40.6372 -77.5764 301° West 342 394 16,200 1,005 Climbing Cleveland Center
Mon 01:14:03 PM 40.6497 -77.7289 276° West 350 403 17,400 912 Climbing Cleveland Center
Mon 01:15:05 PM 40.6614 -77.8539 277° West 348 400 18,100 774 Climbing Cleveland Center
Mon 01:16:07 PM 40.6803 -77.9800 281° West 351 404 19,000 484 Climbing Cleveland Center
Mon 01:17:09 PM 40.6986 -78.1125 280° West 368 423 19,100 581 Climbing Cleveland Center
Mon 01:18:11 PM 40.7172 -78.2456 280° West 371 427 20,200 968 Climbing Cleveland Center
Mon 01:19:13 PM 40.7353 -78.3794 280° West 371 427 21,100 1,016 Climbing Cleveland Center
Mon 01:20:15 PM 40.7575 -78.5400 280° West 371 427 22,300 1,065 Climbing Cleveland Center
Mon 01:21:17 PM 40.7758 -78.6739 280° West 370 426 23,300 968 Climbing Cleveland Center
Mon 01:22:19 PM 40.7931 -78.8094 280° West 372 428 24,300 968 Climbing Cleveland Center
Mon 01:23:21 PM 40.8125 -78.9536 280° West 369 425 25,300 968 Climbing Cleveland Center
Mon 01:24:23 PM 40.8303 -79.0861 280° West 367 422 26,300 1,065 Climbing Cleveland Center
Mon 01:25:25 PM 40.8467 -79.2172 279° West 364 419 27,500 1,500 Climbing Cleveland Center
Mon 01:26:27 PM 40.8622 -79.3406 280° West 343 395 29,400 1,887 Climbing Cleveland Center
Mon 01:27:29 PM 40.8769 -79.4572 280° West 326 375 31,400 1,632 Climbing Cleveland Center
Mon 01:28:32 PM 40.8919 -79.5678 280° West 311 358 32,800 1,056 Climbing Cleveland Center
Mon 01:29:34 PM 40.9067 -79.7019 278° West 311 358 33,600 581 Climbing Cleveland Center
Mon 01:30:36 PM 40.9222 -79.8208 280° West 327 376 34,000 194 Climbing Cleveland Center
Mon 01:31:38 PM 40.9372 -79.9483 279° West 351 404 34,000  Level Cleveland Center
Mon 01:32:40 PM 40.9544 -80.0825 280° West 372 428 34,000  Level Cleveland Center
Mon 01:33:42 PM 40.9703 -80.2219 279° West 384 442 34,000  Level Cleveland Center
Mon 01:34:44 PM 40.9906 -80.3897 279° West 388 447 34,000  Level Cleveland Center
Mon 01:35:46 PM 41.0081 -80.5294 279° West 387 445 34,000  Level Cleveland Center
Mon 01:36:48 PM 41.0236 -80.6706 278° West 390 449 34,000  Level Cleveland Center
Mon 01:37:50 PM 41.0397 -80.8083 279° West 384 442 34,000  Level Cleveland Center
Mon 01:38:52 PM 41.0533 -80.9497 277° West 387 445 34,000  Level Cleveland Center
Mon 01:39:55 PM 41.0619 -81.1081 274° West 387 445 34,000  Level Cleveland Center
Mon 01:40:57 PM 41.0711 -81.2511 275° West 384 442 34,000  Level Cleveland Center
Mon 01:41:59 PM 41.0797 -81.3931 275° West 384 442 34,000  Level Cleveland Center
Mon 01:43:01 PM 41.0894 -81.5375 275° West 387 445 34,000  Level Cleveland Center
Mon 01:44:03 PM 41.0992 -81.7044 274° West 383 441 34,000  Level Cleveland Center
Mon 01:45:05 PM 41.1072 -81.8481 274° West 383 441 34,000  Level Cleveland Center
Mon 01:46:07 PM 41.1158 -81.9908 275° West 383 441 34,000  Level Cleveland Center
Mon 01:47:09 PM 41.1233 -82.1347 274° West 385 443 34,000  Level Cleveland Center
Mon 01:48:11 PM 41.1311 -82.2764 274° West 384 442 34,000  Level Cleveland Center
Mon 01:49:13 PM 41.1394 -82.4189 274° West 383 441 34,000  Level Cleveland Center
Mon 01:50:15 PM 41.1456 -82.5608 273° West 383 441 34,000  Level Cleveland Center
Mon 01:51:17 PM 41.1533 -82.7025 274° West 381 438 34,000  Level Cleveland Center
Mon 01:52:19 PM 41.1600 -82.8431 274° West 380 437 34,000  Level Cleveland Center
Mon 01:53:22 PM 41.1689 -83.0097 274° West 383 441 34,000  Level Cleveland Center
Mon 01:54:24 PM 41.1756 -83.1503 274° West 381 438 34,000  Level Cleveland Center
Mon 01:55:26 PM 41.1831 -83.2981 274° West 384 442 34,000  Level Cleveland Center
Mon 01:56:28 PM 41.1886 -83.4389 273° West 383 441 34,000  Level Cleveland Center
Mon 01:57:30 PM 41.1956 -83.5814 274° West 387 445 34,000  Level Cleveland Center
Mon 01:58:32 PM 41.2025 -83.7219 274° West 384 442 34,000  Level Cleveland Center
Mon 01:59:34 PM 41.2086 -83.8636 273° West 383 441 34,000  Level Cleveland Center
Mon 02:00:21 PM 41.2136 -83.9722 274° West 389 448 34,000  Level Chicago Center
Mon 02:01:23 PM 41.2203 -84.1433 273° West 388 447 34,000  Level Chicago Center
Mon 02:02:25 PM 41.2250 -84.2872 273° West 390 449 34,000  Level Chicago Center
Mon 02:03:27 PM 41.2292 -84.4297 272° West 387 445 34,000  Level Chicago Center
Mon 02:04:29 PM 41.2325 -84.5722 272° West 387 445 34,000  Level Chicago Center
Mon 02:05:31 PM 41.2378 -84.7106 273° West 379 436 34,000  Level Chicago Center
Mon 02:06:33 PM 41.2408 -84.8486 272° West 376 433 34,000 -532 Level Chicago Center
Mon 02:07:35 PM 41.2450 -84.9869 272° West 373 429 32,900 -1,935 Descending Chicago Center
Mon 02:08:37 PM 41.2500 -85.1581 272° West 382 440 30,000 -1,887 Descending Chicago Center
Mon 02:09:39 PM 41.2547 -85.3011 273° West 384 442 29,000 -480 Descending Chicago Center
Mon 02:10:42 PM 41.2597 -85.4494 273° West 393 452 29,000 -720 Level Chicago Center
Mon 02:11:44 PM 41.2656 -85.5983 273° West 399 459 27,500 -1,500 Descending Chicago Center
Mon 02:12:46 PM 41.2722 -85.7442 274° West 396 456 25,900 -1,210 Descending Chicago Center
Mon 02:13:48 PM 41.2775 -85.8953 273° West 405 466 25,000 -677 Descending Chicago Center
Mon 02:14:50 PM 41.2953 -86.0419 279° West 403 464 24,500 -1,161 Descending Chicago Center
Mon 02:15:52 PM 41.3378 -86.2100 289° West 398 458 22,600 -1,694 Descending Chicago Center
Mon 02:16:54 PM 41.3692 -86.3431 287° West 380 437 21,000 -1,548 Descending Chicago Center
Mon 02:17:56 PM 41.4025 -86.4778 288° West 381 438 19,400 -1,548 Descending Chicago Center
Mon 02:18:58 PM 41.4325 -86.6083 287° West 370 426 17,800 -1,452 Descending Chicago Center
Mon 02:20:00 PM 41.4667 -86.7528 288° West 375 432 16,400 -1,452 Descending Chicago Center
Mon 02:21:02 PM 41.4972 -86.8817 288° West 370 426 14,800 -1,488 Descending Chicago Center
Mon 02:22:05 PM 41.5258 -87.0064 287° West 357 411 13,300 -1,344 Descending Chicago Center
Mon 02:23:07 PM 41.5528 -87.1236 287° West 337 388 12,000 -1,016 Descending Chicago Center
Mon 02:24:09 PM 41.5872 -87.2556 289° West 317 365 11,200 -968 Descending Chicago Center
Mon 02:25:11 PM 41.6442 -87.3294 316° Northwest 287 330 10,000 -1,306 Descending Chicago Center
Mon 02:26:13 PM 41.6944 -87.3942 316° Northwest 260 299 8,500 -968 Descending Chicago Center
Mon 02:27:15 PM 41.7344 -87.4725 304° West 261 300 8,000 -629 Descending Chicago Center
Mon 02:28:17 PM 41.7778 -87.5700 301° West 258 297 7,200 -484 Descending Chicago Center
Mon 02:29:19 PM 41.8150 -87.6500 302° West 257 296 7,000 -97 Descending Chicago Center
Mon 02:30:21 PM 41.8344 -87.7383 286° West 253 291 7,000  Level Chicago Center
Mon 02:31:23 PM 41.8522 -87.8308 284° West 256 295 7,000  Level Chicago Center
Mon 02:32:25 PM 41.8694 -87.9217 284° West 255 293 7,000  Level Chicago Center
Mon 02:33:28 PM 41.8853 -88.0308 281° West 255 293 7,000 -564 Level Chicago Center
Mon 02:34:22 PM 41.8833 -88.1167 268° West 246 283 5,900 -1,053 Descending Chicago TRACON
Mon 02:35:22 PM 41.8833 -88.2000 270° West 247 284 5,000 -429 Descending Chicago TRACON
Mon 02:36:28 PM 41.8833 -88.3000 270° West 245 282 5,000  Level Chicago TRACON
Mon 02:37:36 PM 41.8817 -88.3975 269° West 249 287 5,000  Level Chicago Center
Mon 02:38:38 PM 41.9317 -88.4503 322° Northwest 249 287 5,000  Level Chicago Center
Mon 02:39:40 PM 41.9614 -88.3639 65° Northeast 255 293 5,000  Level Chicago Center
Mon 02:40:42 PM 41.9636 -88.2750 88° East 245 282 5,000 -145 Level Chicago Center
Mon 02:41:44 PM 41.9644 -88.1978 89° East 225 259 4,700 -677 Descending Chicago Center
Mon 02:42:46 PM 41.9644 -88.1258 90° East 209 241 3,600 -1,086 Descending Chicago Center
Mon 02:43:29 PM 41.9667 -88.0667 87° East 177 204 2,800 -990 Descending Chicago TRACON
Mon 02:44:29 PM 41.9667 -88.0167 90° East 157 181 1,900 -900 Descending Chicago TRACON

Login

Don't have an account? Register now (free) for customized features, flight alerts, and more!